sensor_id;sensor_type;location;lat;lon;timestamp;pressure;altitude;pressure_sealevel;temperature;humidity
60101;BME280;45978;53.646;55.930;2022-10-16T00:00:07;100548.03;;;7.15;86.40
60101;BME280;45978;53.646;55.930;2022-10-16T00:01:11;100552.34;;;7.25;86.97
60101;BME280;45978;53.646;55.930;2022-10-16T00:02:12;100555.84;;;7.24;86.56
60101;BME280;45978;53.646;55.930;2022-10-16T00:03:14;100557.59;;;7.22;86.70
60101;BME280;45978;53.646;55.930;2022-10-16T00:04:15;100554.97;;;7.27;86.22
60101;BME280;45978;53.646;55.930;2022-10-16T00:05:16;100550.66;;;7.18;86.36
60101;BME280;45978;53.646;55.930;2022-10-16T00:06:20;100560.19;;;7.30;86.48
60101;BME280;45978;53.646;55.930;2022-10-16T00:07:21;100562.78;;;7.33;86.26
60101;BME280;45978;53.646;55.930;2022-10-16T00:08:22;100561.91;;;7.34;86.87
60101;BME280;45978;53.646;55.930;2022-10-16T00:09:24;100544.50;;;7.28;86.45
60101;BME280;45978;53.646;55.930;2022-10-16T00:10:25;100557.53;;;7.34;86.12
60101;BME280;45978;53.646;55.930;2022-10-16T00:11:29;100555.78;;;7.35;86.12
60101;BME280;45978;53.646;55.930;2022-10-16T00:12:30;100561.91;;;7.32;86.11
60101;BME280;45978;53.646;55.930;2022-10-16T00:13:33;100565.38;;;7.33;86.09
60101;BME280;45978;53.646;55.930;2022-10-16T00:14:34;100557.53;;;7.34;86.00
60101;BME280;45978;53.646;55.930;2022-10-16T00:15:36;100556.69;;;7.34;86.36
60101;BME280;45978;53.646;55.930;2022-10-16T00:16:40;100544.50;;;7.27;86.32
60101;BME280;45978;53.646;55.930;2022-10-16T00:17:41;100559.25;;;7.36;85.84
60101;BME280;45978;53.646;55.930;2022-10-16T00:18:43;100542.78;;;7.21;86.14
60101;BME280;45978;53.646;55.930;2022-10-16T00:19:45;100553.22;;;7.30;86.29
60101;BME280;45978;53.646;55.930;2022-10-16T00:21:10;100564.53;;;7.34;86.35
60101;BME280;45978;53.646;55.930;2022-10-16T00:22:30;100553.19;;;7.27;86.38
60101;BME280;45978;53.646;55.930;2022-10-16T00:23:34;100570.59;;;7.31;86.59
60101;BME280;45978;53.646;55.930;2022-10-16T00:24:36;100559.28;;;7.34;86.03
60101;BME280;45978;53.646;55.930;2022-10-16T00:25:38;100539.31;;;7.18;86.42
60101;BME280;45978;53.646;55.930;2022-10-16T00:26:39;100563.66;;;7.30;86.30
60101;BME280;45978;53.646;55.930;2022-10-16T00:27:41;100560.19;;;7.24;85.83
60101;BME280;45978;53.646;55.930;2022-10-16T00:28:42;100560.19;;;7.24;86.10
60101;BME280;45978;53.646;55.930;2022-10-16T00:29:50;100553.22;;;7.23;86.69
60101;BME280;45978;53.646;55.930;2022-10-16T00:30:52;100560.22;;;7.21;86.79
60101;BME280;45978;53.646;55.930;2022-10-16T00:31:53;100563.69;;;7.20;86.92
60101;BME280;45978;53.646;55.930;2022-10-16T00:32:55;100568.88;;;7.26;86.93
60101;BME280;45978;53.646;55.930;2022-10-16T00:33:57;100566.28;;;7.23;86.96
60101;BME280;45978;53.646;55.930;2022-10-16T00:34:58;100575.00;;;7.26;87.14
60101;BME280;45978;53.646;55.930;2022-10-16T00:36:00;100569.78;;;7.26;86.56
60101;BME280;45978;53.646;55.930;2022-10-16T00:37:02;100572.34;;;7.29;86.83
60101;BME280;45978;53.646;55.930;2022-10-16T00:38:03;100572.38;;;7.25;86.73
60101;BME280;45978;53.646;55.930;2022-10-16T00:39:04;100570.63;;;7.25;87.03
60101;BME280;45978;53.646;55.930;2022-10-16T00:40:06;100564.50;;;7.29;87.09
60101;BME280;45978;53.646;55.930;2022-10-16T00:41:11;100580.19;;;7.29;86.74
60101;BME280;45978;53.646;55.930;2022-10-16T00:42:17;100571.50;;;7.26;87.00
60101;BME280;45978;53.646;55.930;2022-10-16T00:43:38;100578.47;;;7.25;87.15
60101;BME280;45978;53.646;55.930;2022-10-16T00:44:53;100568.03;;;7.18;87.18
60101;BME280;45978;53.646;55.930;2022-10-16T00:45:54;100580.19;;;7.28;87.11
60101;BME280;45978;53.646;55.930;2022-10-16T00:46:55;100574.09;;;7.29;87.43
60101;BME280;45978;53.646;55.930;2022-10-16T00:47:58;100570.59;;;7.34;87.25
60101;BME280;45978;53.646;55.930;2022-10-16T00:49:02;100574.09;;;7.37;86.60
60101;BME280;45978;53.646;55.930;2022-10-16T00:50:16;100576.69;;;7.38;87.15
60101;BME280;45978;53.646;55.930;2022-10-16T00:51:23;100581.06;;;7.34;86.49
60101;BME280;45978;53.646;55.930;2022-10-16T00:52:25;100578.44;;;7.31;87.22
60101;BME280;45978;53.646;55.930;2022-10-16T00:53:27;100582.81;;;7.34;86.76
60101;BME280;45978;53.646;55.930;2022-10-16T00:54:30;100581.09;;;7.30;86.88
60101;BME280;45978;53.646;55.930;2022-10-16T00:55:32;100569.75;;;7.29;87.55
60101;BME280;45978;53.646;55.930;2022-10-16T00:56:34;100591.47;;;7.39;87.26
60101;BME280;45978;53.646;55.930;2022-10-16T00:57:39;100585.41;;;7.42;87.26
60101;BME280;45978;53.646;55.930;2022-10-16T00:58:40;100592.34;;;7.44;87.07
60101;BME280;45978;53.646;55.930;2022-10-16T00:59:42;100579.31;;;7.38;87.02
60101;BME280;45978;53.646;55.930;2022-10-16T01:00:43;100581.03;;;7.38;87.13
60101;BME280;45978;53.646;55.930;2022-10-16T01:01:45;100588.88;;;7.42;87.44
60101;BME280;45978;53.646;55.930;2022-10-16T01:03:00;100586.25;;;7.39;87.31
60101;BME280;45978;53.646;55.930;2022-10-16T01:04:01;100582.78;;;7.39;86.91
60101;BME280;45978;53.646;55.930;2022-10-16T01:05:03;100590.59;;;7.45;87.01
60101;BME280;45978;53.646;55.930;2022-10-16T01:10:17;100596.72;;;7.42;87.83
60101;BME280;45978;53.646;55.930;2022-10-16T01:11:29;100588.88;;;7.39;87.80
60101;BME280;45978;53.646;55.930;2022-10-16T01:12:59;100589.75;;;7.33;87.37
60101;BME280;45978;53.646;55.930;2022-10-16T01:14:09;100592.38;;;7.38;87.46
60101;BME280;45978;53.646;55.930;2022-10-16T01:15:31;100602.81;;;7.44;87.47
60101;BME280;45978;53.646;55.930;2022-10-16T01:16:43;100594.97;;;7.46;87.90
60101;BME280;45978;53.646;55.930;2022-10-16T01:19:36;100603.63;;;7.51;87.68
60101;BME280;45978;53.646;55.930;2022-10-16T01:21:26;100594.94;;;7.47;87.35
60101;BME280;45978;53.646;55.930;2022-10-16T01:22:38;100596.69;;;7.50;87.10
60101;BME280;45978;53.646;55.930;2022-10-16T01:23:57;100587.13;;;7.43;87.54
60101;BME280;45978;53.646;55.930;2022-10-16T01:25:05;100588.91;;;7.36;87.37
60101;BME280;45978;53.646;55.930;2022-10-16T01:26:32;100600.22;;;7.37;87.80
60101;BME280;45978;53.646;55.930;2022-10-16T01:27:38;100593.25;;;7.34;88.14
60101;BME280;45978;53.646;55.930;2022-10-16T01:28:54;100601.06;;;7.39;87.76
60101;BME280;45978;53.646;55.930;2022-10-16T01:31:10;100603.69;;;7.36;88.27
60101;BME280;45978;53.646;55.930;2022-10-16T01:33:44;100601.94;;;7.41;87.97
60101;BME280;45978;53.646;55.930;2022-10-16T01:34:53;100606.28;;;7.45;87.83
60101;BME280;45978;53.646;55.930;2022-10-16T01:36:00;100582.81;;;7.31;87.89
60101;BME280;45978;53.646;55.930;2022-10-16T01:37:14;100608.06;;;7.35;88.07
60101;BME280;45978;53.646;55.930;2022-10-16T01:38:38;100609.78;;;7.31;88.86
60101;BME280;45978;53.646;55.930;2022-10-16T01:39:40;100608.91;;;7.37;88.36
60101;BME280;45978;53.646;55.930;2022-10-16T01:40:50;100604.56;;;7.33;88.86
60101;BME280;45978;53.646;55.930;2022-10-16T01:42:19;100603.72;;;7.34;88.60
60101;BME280;45978;53.646;55.930;2022-10-16T01:43:35;100612.41;;;7.34;88.68
60101;BME280;45978;53.646;55.930;2022-10-16T01:44:38;100588.06;;;7.14;88.86
60101;BME280;45978;53.646;55.930;2022-10-16T01:45:40;100611.53;;;7.32;89.07
60101;BME280;45978;53.646;55.930;2022-10-16T01:46:44;100608.06;;;7.30;89.00
60101;BME280;45978;53.646;55.930;2022-10-16T01:47:47;100608.06;;;7.32;89.23
60101;BME280;45978;53.646;55.930;2022-10-16T01:48:50;100613.28;;;7.35;89.09
60101;BME280;45978;53.646;55.930;2022-10-16T01:49:53;100594.16;;;7.27;88.78
60101;BME280;45978;53.646;55.930;2022-10-16T01:51:08;100606.31;;;7.40;88.92
60101;BME280;45978;53.646;55.930;2022-10-16T01:52:17;100608.88;;;7.43;88.77
60101;BME280;45978;53.646;55.930;2022-10-16T01:53:20;100609.78;;;7.41;88.59
60101;BME280;45978;53.646;55.930;2022-10-16T01:54:26;100607.16;;;7.44;88.71
60101;BME280;45978;53.646;55.930;2022-10-16T01:55:32;100608.00;;;7.49;88.83
60101;BME280;45978;53.646;55.930;2022-10-16T01:56:36;100611.50;;;7.45;88.55
60101;BME280;45978;53.646;55.930;2022-10-16T01:57:44;100608.03;;;7.41;88.53
60101;BME280;45978;53.646;55.930;2022-10-16T01:58:51;100607.16;;;7.39;88.35
60101;BME280;45978;53.646;55.930;2022-10-16T01:59:58;100608.03;;;7.44;88.34
60101;BME280;45978;53.646;55.930;2022-10-16T02:01:03;100611.50;;;7.45;88.55
60101;BME280;45978;53.646;55.930;2022-10-16T02:02:08;100611.50;;;7.48;88.29
60101;BME280;45978;53.646;55.930;2022-10-16T02:03:12;100611.50;;;7.43;88.43
60101;BME280;45978;53.646;55.930;2022-10-16T02:04:39;100615.84;;;7.47;88.42
60101;BME280;45978;53.646;55.930;2022-10-16T02:05:55;100614.13;;;7.40;88.51
60101;BME280;45978;53.646;55.930;2022-10-16T02:06:57;100615.88;;;7.41;88.37
60101;BME280;45978;53.646;55.930;2022-10-16T02:08:00;100613.25;;;7.40;88.35
60101;BME280;45978;53.646;55.930;2022-10-16T02:09:02;100617.63;;;7.44;88.69
60101;BME280;45978;53.646;55.930;2022-10-16T02:10:04;100618.47;;;7.40;88.67
60101;BME280;45978;53.646;55.930;2022-10-16T02:11:06;100608.91;;;7.40;88.61
60101;BME280;45978;53.646;55.930;2022-10-16T02:12:19;100619.34;;;7.46;88.52
60101;BME280;45978;53.646;55.930;2022-10-16T02:13:46;100621.97;;;7.45;87.81
60101;BME280;45978;53.646;55.930;2022-10-16T02:14:48;100606.31;;;7.42;88.42
60101;BME280;45978;53.646;55.930;2022-10-16T02:15:50;100622.81;;;7.45;88.18
60101;BME280;45978;53.646;55.930;2022-10-16T02:16:55;100624.56;;;7.54;87.83
60101;BME280;45978;53.646;55.930;2022-10-16T02:17:57;100632.38;;;7.51;87.86
60101;BME280;45978;53.646;55.930;2022-10-16T02:18:59;100613.25;;;7.41;88.19
60101;BME280;45978;53.646;55.930;2022-10-16T02:20:01;100633.28;;;7.45;87.95
60101;BME280;45978;53.646;55.930;2022-10-16T02:21:17;100625.44;;;7.39;87.91
60101;BME280;45978;53.646;55.930;2022-10-16T02:22:34;100628.94;;;7.44;88.41
60101;BME280;45978;53.646;55.930;2022-10-16T02:24:57;100629.78;;;7.49;87.70
60101;BME280;45978;53.646;55.930;2022-10-16T02:26:03;100630.66;;;7.50;87.99
60101;BME280;45978;53.646;55.930;2022-10-16T02:27:46;100640.22;;;7.49;88.33
60101;BME280;45978;53.646;55.930;2022-10-16T02:28:53;100631.53;;;7.44;88.52
60101;BME280;45978;53.646;55.930;2022-10-16T02:30:05;100633.28;;;7.45;88.18
60101;BME280;45978;53.646;55.930;2022-10-16T02:31:11;100630.66;;;7.45;87.91
60101;BME280;45978;53.646;55.930;2022-10-16T02:32:16;100639.38;;;7.44;88.54
60101;BME280;45978;53.646;55.930;2022-10-16T02:33:20;100637.63;;;7.45;88.67
60101;BME280;45978;53.646;55.930;2022-10-16T02:34:24;100637.63;;;7.45;88.61
60101;BME280;45978;53.646;55.930;2022-10-16T02:35:27;100632.41;;;7.45;88.34
60101;BME280;45978;53.646;55.930;2022-10-16T02:36:29;100641.97;;;7.50;88.88
60101;BME280;45978;53.646;55.930;2022-10-16T02:37:30;100641.97;;;7.52;88.61
60101;BME280;45978;53.646;55.930;2022-10-16T02:38:33;100643.72;;;7.54;88.65
60101;BME280;45978;53.646;55.930;2022-10-16T02:39:35;100640.19;;;7.57;88.34
60101;BME280;45978;53.646;55.930;2022-10-16T02:40:40;100645.44;;;7.62;88.21
60101;BME280;45978;53.646;55.930;2022-10-16T02:41:41;100647.16;;;7.61;87.89
60101;BME280;45978;53.646;55.930;2022-10-16T02:42:43;100644.53;;;7.63;88.48
60101;BME280;45978;53.646;55.930;2022-10-16T02:43:44;100646.31;;;7.65;88.03
60101;BME280;45978;53.646;55.930;2022-10-16T02:44:45;100646.31;;;7.65;87.95
60101;BME280;45978;53.646;55.930;2022-10-16T02:45:46;100647.16;;;7.66;88.47
60101;BME280;45978;53.646;55.930;2022-10-16T02:46:47;100646.28;;;7.67;88.39
60101;BME280;45978;53.646;55.930;2022-10-16T02:47:49;100648.88;;;7.68;88.07
60101;BME280;45978;53.646;55.930;2022-10-16T02:48:51;100654.97;;;7.69;88.18
60101;BME280;45978;53.646;55.930;2022-10-16T02:49:52;100639.31;;;7.66;88.57
60101;BME280;45978;53.646;55.930;2022-10-16T02:50:53;100645.41;;;7.68;88.03
60101;BME280;45978;53.646;55.930;2022-10-16T02:51:54;100639.34;;;7.55;88.52
60101;BME280;45978;53.646;55.930;2022-10-16T02:52:55;100654.13;;;7.61;88.64
60101;BME280;45978;53.646;55.930;2022-10-16T02:53:56;100641.94;;;7.57;88.19
60101;BME280;45978;53.646;55.930;2022-10-16T02:54:57;100642.84;;;7.56;88.97
60101;BME280;45978;53.646;55.930;2022-10-16T02:55:58;100648.06;;;7.60;88.38
60101;BME280;45978;53.646;55.930;2022-10-16T02:57:00;100653.25;;;7.66;88.59
60101;BME280;45978;53.646;55.930;2022-10-16T02:58:01;100650.63;;;7.68;88.49
60101;BME280;45978;53.646;55.930;2022-10-16T02:59:02;100654.97;;;7.69;88.19
60101;BME280;45978;53.646;55.930;2022-10-16T03:00:05;100642.78;;;7.63;87.98
60101;BME280;45978;53.646;55.930;2022-10-16T03:01:08;100657.63;;;7.64;88.21
60101;BME280;45978;53.646;55.930;2022-10-16T03:02:09;100658.50;;;7.62;88.22
60101;BME280;45978;53.646;55.930;2022-10-16T03:03:10;100644.59;;;7.52;88.30
60101;BME280;45978;53.646;55.930;2022-10-16T03:04:11;100663.69;;;7.71;88.84
60101;BME280;45978;53.646;55.930;2022-10-16T03:05:14;100661.09;;;7.63;89.05
60101;BME280;45978;53.646;55.930;2022-10-16T03:06:15;100655.88;;;7.69;88.85
60101;BME280;45978;53.646;55.930;2022-10-16T03:07:16;100664.53;;;7.74;88.38
60101;BME280;45978;53.646;55.930;2022-10-16T03:08:19;100658.47;;;7.69;88.72
60101;BME280;45978;53.646;55.930;2022-10-16T03:09:24;100668.91;;;7.72;88.47
60101;BME280;45978;53.646;55.930;2022-10-16T03:10:26;100662.81;;;7.73;88.94
60101;BME280;45978;53.646;55.930;2022-10-16T03:11:27;100643.69;;;7.65;88.73
60101;BME280;45978;53.646;55.930;2022-10-16T03:12:29;100665.41;;;7.77;88.93
60101;BME280;45978;53.646;55.930;2022-10-16T03:13:30;100673.22;;;7.84;88.66
60101;BME280;45978;53.646;55.930;2022-10-16T03:14:31;100663.69;;;7.77;88.75
60101;BME280;45978;53.646;55.930;2022-10-16T03:15:32;100666.28;;;7.82;89.09
60101;BME280;45978;53.646;55.930;2022-10-16T03:16:33;100668.00;;;7.84;88.56
60101;BME280;45978;53.646;55.930;2022-10-16T03:17:34;100670.63;;;7.81;89.01
60101;BME280;45978;53.646;55.930;2022-10-16T03:18:35;100667.13;;;7.81;88.72
60101;BME280;45978;53.646;55.930;2022-10-16T03:19:36;100675.84;;;7.84;88.99
60101;BME280;45978;53.646;55.930;2022-10-16T03:20:38;100675.84;;;7.87;88.72
60101;BME280;45978;53.646;55.930;2022-10-16T03:21:39;100677.56;;;7.87;88.45
60101;BME280;45978;53.646;55.930;2022-10-16T03:22:40;100681.91;;;7.94;89.00
60101;BME280;45978;53.646;55.930;2022-10-16T03:23:43;100685.38;;;7.94;88.93
60101;BME280;45978;53.646;55.930;2022-10-16T03:24:44;100674.94;;;7.88;88.96
60101;BME280;45978;53.646;55.930;2022-10-16T03:25:46;100686.28;;;7.92;88.72
60101;BME280;45978;53.646;55.930;2022-10-16T03:26:48;100686.28;;;7.93;88.33
60101;BME280;45978;53.646;55.930;2022-10-16T03:27:49;100683.66;;;7.90;88.47
60101;BME280;45978;53.646;55.930;2022-10-16T03:28:50;100677.56;;;7.87;89.01
60101;BME280;45978;53.646;55.930;2022-10-16T03:29:51;100683.66;;;7.93;88.75
60101;BME280;45978;53.646;55.930;2022-10-16T03:30:52;100688.84;;;7.98;88.87
60101;BME280;45978;53.646;55.930;2022-10-16T03:31:53;100686.28;;;7.93;88.38
60101;BME280;45978;53.646;55.930;2022-10-16T03:32:54;100696.72;;;7.98;88.87
60101;BME280;45978;53.646;55.930;2022-10-16T03:33:56;100694.09;;;7.98;88.52
60101;BME280;45978;53.646;55.930;2022-10-16T03:34:57;100689.75;;;7.92;89.21
60101;BME280;45978;53.646;55.930;2022-10-16T03:35:58;100682.81;;;7.93;89.12
60101;BME280;45978;53.646;55.930;2022-10-16T03:37:00;100680.22;;;7.84;89.20
60101;BME280;45978;53.646;55.930;2022-10-16T03:38:01;100678.47;;;7.87;89.29
60101;BME280;45978;53.646;55.930;2022-10-16T03:39:02;100687.16;;;7.88;89.01
60101;BME280;45978;53.646;55.930;2022-10-16T03:40:04;100684.56;;;7.88;88.98
60101;BME280;45978;53.646;55.930;2022-10-16T03:41:05;100691.50;;;7.90;89.37
60101;BME280;45978;53.646;55.930;2022-10-16T03:42:08;100685.41;;;7.91;89.29
60101;BME280;45978;53.646;55.930;2022-10-16T03:43:10;100691.50;;;7.95;89.49
60101;BME280;45978;53.646;55.930;2022-10-16T03:44:12;100693.25;;;7.93;89.26
60101;BME280;45978;53.646;55.930;2022-10-16T03:45:13;100703.69;;;7.96;89.32
60101;BME280;45978;53.646;55.930;2022-10-16T03:46:14;100688.91;;;7.93;88.99
60101;BME280;45978;53.646;55.930;2022-10-16T03:47:15;100694.97;;;7.97;89.33
60101;BME280;45978;53.646;55.930;2022-10-16T03:48:21;100691.50;;;7.93;89.26
60101;BME280;45978;53.646;55.930;2022-10-16T03:49:22;100699.34;;;7.92;88.83
60101;BME280;45978;53.646;55.930;2022-10-16T03:50:24;100715.03;;;8.00;89.73
60101;BME280;45978;53.646;55.930;2022-10-16T03:51:25;100703.69;;;8.01;89.18
60101;BME280;45978;53.646;55.930;2022-10-16T03:52:26;100707.16;;;8.03;89.48
60101;BME280;45978;53.646;55.930;2022-10-16T03:53:28;100694.94;;;7.99;89.78
60101;BME280;45978;53.646;55.930;2022-10-16T03:54:29;100701.94;;;8.03;89.65
60101;BME280;45978;53.646;55.930;2022-10-16T03:55:30;100665.38;;;7.84;89.64
60101;BME280;45978;53.646;55.930;2022-10-16T03:56:32;100709.75;;;8.06;89.97
60101;BME280;45978;53.646;55.930;2022-10-16T03:57:33;100710.63;;;8.06;89.36
60101;BME280;45978;53.646;55.930;2022-10-16T03:58:34;100703.66;;;8.02;89.55
60101;BME280;45978;53.646;55.930;2022-10-16T03:59:36;100707.16;;;8.09;89.66
60101;BME280;45978;53.646;55.930;2022-10-16T04:00:41;100703.63;;;8.08;89.53
60101;BME280;45978;53.646;55.930;2022-10-16T04:01:43;100708.91;;;8.05;89.51
60101;BME280;45978;53.646;55.930;2022-10-16T04:02:44;100710.63;;;8.08;89.11
60101;BME280;45978;53.646;55.930;2022-10-16T04:03:45;100702.81;;;8.05;89.83
60101;BME280;45978;53.646;55.930;2022-10-16T04:04:46;100697.50;;;8.16;89.56
60101;BME280;45978;53.646;55.930;2022-10-16T04:05:47;100712.31;;;8.23;89.92
60101;BME280;45978;53.646;55.930;2022-10-16T04:06:48;100710.56;;;8.22;89.25
60101;BME280;45978;53.646;55.930;2022-10-16T04:07:49;100710.56;;;8.22;89.44
60101;BME280;45978;53.646;55.930;2022-10-16T04:08:50;100706.22;;;8.19;89.58
60101;BME280;45978;53.646;55.930;2022-10-16T04:09:52;100718.41;;;8.26;89.30
60101;BME280;45978;53.646;55.930;2022-10-16T04:10:54;100714.03;;;8.24;89.27
60101;BME280;45978;53.646;55.930;2022-10-16T04:11:55;100704.47;;;8.18;89.33
60101;BME280;45978;53.646;55.930;2022-10-16T04:12:56;100717.56;;;8.17;89.05
60101;BME280;45978;53.646;55.930;2022-10-16T04:13:58;100731.47;;;8.28;88.81
60101;BME280;45978;53.646;55.930;2022-10-16T04:14:59;100727.13;;;8.28;89.10
60101;BME280;45978;53.646;55.930;2022-10-16T04:16:00;100696.66;;;8.12;89.07
60101;BME280;45978;53.646;55.930;2022-10-16T04:17:01;100721.03;;;8.26;88.72
60101;BME280;45978;53.646;55.930;2022-10-16T04:18:03;100720.16;;;8.24;89.23
60101;BME280;45978;53.646;55.930;2022-10-16T04:19:04;100732.31;;;8.30;88.66
60101;BME280;45978;53.646;55.930;2022-10-16T04:20:05;100728.84;;;8.31;88.83
60101;BME280;45978;53.646;55.930;2022-10-16T04:21:07;100719.25;;;8.25;88.96
60101;BME280;45978;53.646;55.930;2022-10-16T04:22:10;100734.94;;;8.30;88.35
60101;BME280;45978;53.646;55.930;2022-10-16T04:23:11;100732.31;;;8.31;88.51
60101;BME280;45978;53.646;55.930;2022-10-16T04:24:12;100709.69;;;8.21;88.87
60101;BME280;45978;53.646;55.930;2022-10-16T04:25:13;100726.22;;;8.32;88.14
60101;BME280;45978;53.646;55.930;2022-10-16T04:26:15;100728.84;;;8.32;88.48
60101;BME280;45978;53.646;55.930;2022-10-16T04:27:16;100722.75;;;8.29;88.75
60101;BME280;45978;53.646;55.930;2022-10-16T04:28:17;100733.22;;;8.30;88.39
60101;BME280;45978;53.646;55.930;2022-10-16T04:29:18;100721.88;;;8.24;88.45
60101;BME280;45978;53.646;55.930;2022-10-16T04:30:20;100734.94;;;8.35;88.24
60101;BME280;45978;53.646;55.930;2022-10-16T04:31:22;100734.94;;;8.31;87.82
60101;BME280;45978;53.646;55.930;2022-10-16T04:32:23;100741.94;;;8.32;88.31
60101;BME280;45978;53.646;55.930;2022-10-16T04:33:25;100734.97;;;8.28;88.31
60101;BME280;45978;53.646;55.930;2022-10-16T04:34:26;100747.16;;;8.29;88.06
60101;BME280;45978;53.646;55.930;2022-10-16T04:35:27;100739.31;;;8.29;87.70
60101;BME280;45978;53.646;55.930;2022-10-16T04:36:28;100745.41;;;8.30;88.29
60101;BME280;45978;53.646;55.930;2022-10-16T04:37:29;100736.72;;;8.23;88.14
60101;BME280;45978;53.646;55.930;2022-10-16T04:38:30;100742.81;;;8.27;88.00
60101;BME280;45978;53.646;55.930;2022-10-16T04:39:32;100743.69;;;8.27;88.23
60101;BME280;45978;53.646;55.930;2022-10-16T04:40:33;100716.72;;;8.10;88.29
60101;BME280;45978;53.646;55.930;2022-10-16T04:41:37;100742.81;;;8.24;88.48
60101;BME280;45978;53.646;55.930;2022-10-16T04:42:38;100733.28;;;8.15;88.23
60101;BME280;45978;53.646;55.930;2022-10-16T04:43:39;100749.81;;;8.23;88.20
60101;BME280;45978;53.646;55.930;2022-10-16T04:44:40;100750.66;;;8.27;88.74
60101;BME280;45978;53.646;55.930;2022-10-16T04:45:41;100744.56;;;8.23;88.16
60101;BME280;45978;53.646;55.930;2022-10-16T04:46:43;100746.28;;;8.29;88.58
60101;BME280;45978;53.646;55.930;2022-10-16T04:47:45;100752.41;;;8.31;88.21
60101;BME280;45978;53.646;55.930;2022-10-16T04:48:46;100745.41;;;8.35;88.07
60101;BME280;45978;53.646;55.930;2022-10-16T04:49:47;100749.75;;;8.37;88.12
60101;BME280;45978;53.646;55.930;2022-10-16T04:50:48;100763.69;;;8.44;88.46
60101;BME280;45978;53.646;55.930;2022-10-16T04:51:49;100752.34;;;8.40;88.17
60101;BME280;45978;53.646;55.930;2022-10-16T04:52:51;100758.50;;;8.42;88.02
60101;BME280;45978;53.646;55.930;2022-10-16T04:53:53;100761.94;;;8.46;87.76
60101;BME280;45978;53.646;55.930;2022-10-16T04:54:57;100754.09;;;8.46;88.28
60101;BME280;45978;53.646;55.930;2022-10-16T04:56:01;100751.47;;;8.49;87.85
60101;BME280;45978;53.646;55.930;2022-10-16T04:57:03;100754.94;;;8.51;88.18
60101;BME280;45978;53.646;55.930;2022-10-16T04:58:05;100759.25;;;8.61;88.27
60101;BME280;45978;53.646;55.930;2022-10-16T04:59:06;100752.28;;;8.57;88.07
60101;BME280;45978;53.646;55.930;2022-10-16T05:00:08;100759.25;;;8.63;88.00
60101;BME280;45978;53.646;55.930;2022-10-16T05:01:10;100761.00;;;8.61;88.07
60101;BME280;45978;53.646;55.930;2022-10-16T05:02:12;100757.47;;;8.66;87.23
60101;BME280;45978;53.646;55.930;2022-10-16T05:03:13;100770.53;;;8.72;87.92
60101;BME280;45978;53.646;55.930;2022-10-16T05:04:14;100762.69;;;8.72;87.64
60101;BME280;45978;53.646;55.930;2022-10-16T05:05:16;100763.56;;;8.70;87.11
60101;BME280;45978;53.646;55.930;2022-10-16T05:06:19;100765.34;;;8.68;87.07
60101;BME280;45978;53.646;55.930;2022-10-16T05:07:20;100766.19;;;8.65;86.83
60101;BME280;45978;53.646;55.930;2022-10-16T05:08:21;100767.97;;;8.65;87.08
60101;BME280;45978;53.646;55.930;2022-10-16T05:09:22;100764.47;;;8.64;86.79
60101;BME280;45978;53.646;55.930;2022-10-16T05:10:23;100771.44;;;8.68;86.88
60101;BME280;45978;53.646;55.930;2022-10-16T05:11:25;100774.03;;;8.71;86.72
60101;BME280;45978;53.646;55.930;2022-10-16T05:12:26;100764.44;;;8.70;86.73
60101;BME280;45978;53.646;55.930;2022-10-16T05:13:28;100765.28;;;8.71;86.97
60101;BME280;45978;53.646;55.930;2022-10-16T05:14:29;100778.31;;;8.85;86.41
60101;BME280;45978;53.646;55.930;2022-10-16T05:15:31;100773.06;;;8.86;86.72
60101;BME280;45978;53.646;55.930;2022-10-16T05:16:33;100782.63;;;8.89;86.54
60101;BME280;45978;53.646;55.930;2022-10-16T05:17:35;100778.31;;;8.86;86.06
60101;BME280;45978;53.646;55.930;2022-10-16T05:18:38;100785.31;;;8.87;86.29
60101;BME280;45978;53.646;55.930;2022-10-16T05:19:39;100779.16;;;8.91;86.10
60101;BME280;45978;53.646;55.930;2022-10-16T05:20:41;100781.75;;;8.95;85.66
60101;BME280;45978;53.646;55.930;2022-10-16T05:21:43;100774.72;;;8.98;85.26
60101;BME280;45978;53.646;55.930;2022-10-16T05:22:44;100760.81;;;8.91;85.23
60101;BME280;45978;53.646;55.930;2022-10-16T05:23:45;100772.09;;;9.01;85.41
60101;BME280;45978;53.646;55.930;2022-10-16T05:24:46;100773.81;;;9.02;84.80
60101;BME280;45978;53.646;55.930;2022-10-16T05:25:56;100786.00;;;9.11;84.67
60101;BME280;45978;53.646;55.930;2022-10-16T05:26:58;100769.44;;;9.06;84.61
60101;BME280;45978;53.646;55.930;2022-10-16T05:27:59;100778.16;;;9.08;84.72
60101;BME280;45978;53.646;55.930;2022-10-16T05:29:01;100780.78;;;9.09;84.57
60101;BME280;45978;53.646;55.930;2022-10-16T05:30:04;100773.72;;;9.16;84.17
60101;BME280;45978;53.646;55.930;2022-10-16T05:31:09;100790.28;;;9.21;84.02
60101;BME280;45978;53.646;55.930;2022-10-16T05:32:11;100765.00;;;9.12;83.91
60101;BME280;45978;53.646;55.930;2022-10-16T05:33:13;100785.91;;;9.25;83.77
60101;BME280;45978;53.646;55.930;2022-10-16T05:34:14;100783.31;;;9.22;83.62
60101;BME280;45978;53.646;55.930;2022-10-16T05:35:17;100778.03;;;9.25;83.84
60101;BME280;45978;53.646;55.930;2022-10-16T05:36:19;100787.63;;;9.27;83.48
60101;BME280;45978;53.646;55.930;2022-10-16T05:37:21;100773.63;;;9.30;83.21
60101;BME280;45978;53.646;55.930;2022-10-16T05:38:22;100761.53;;;9.12;83.08
60101;BME280;45978;53.646;55.930;2022-10-16T05:39:26;100776.28;;;9.22;83.00
60101;BME280;45978;53.646;55.930;2022-10-16T05:40:27;100779.81;;;9.20;82.93
60101;BME280;45978;53.646;55.930;2022-10-16T05:41:28;100792.88;;;9.29;82.70
60101;BME280;45978;53.646;55.930;2022-10-16T05:42:29;100787.56;;;9.35;83.02
60101;BME280;45978;53.646;55.930;2022-10-16T05:43:32;100794.53;;;9.39;82.44